createdAt,value
2018-03-19T00:00:43.896Z,25.15
2018-03-19T00:03:11.615Z,15.23
2018-03-19T00:05:39.058Z,56.92
2018-03-19T00:08:06.568Z,42.97
2018-03-19T00:10:34.150Z,30.65
2018-03-19T00:13:01.597Z,49.13
2018-03-19T00:15:29.294Z,28.17
2018-03-19T00:17:56.762Z,20.73
2018-03-19T00:20:24.442Z,32.80
2018-03-19T00:22:51.899Z,31.02
2018-03-19T00:25:19.405Z,38.42
2018-03-19T00:27:47.259Z,32.83
2018-03-19T00:30:15.025Z,29.48
2018-03-19T00:32:42.485Z,77.40
2018-03-19T00:35:09.930Z,92.32
2018-03-19T00:37:37.421Z,42.55
2018-03-19T00:40:04.831Z,113.07
2018-03-19T00:42:32.504Z,10.75
2018-03-19T00:44:59.986Z,70.00
2018-03-19T00:47:27.427Z,26.92
2018-03-19T00:49:54.990Z,48.58
2018-03-19T00:52:22.425Z,50.55
2018-03-19T00:54:50.206Z,84.93
2018-03-19T00:57:18.428Z,65.12
2018-03-19T00:59:45.850Z,11.15
2018-03-19T01:02:13.407Z,35.88
2018-03-19T01:04:40.858Z,69.85
2018-03-19T01:07:08.414Z,16.48
2018-03-19T01:09:36.078Z,68.43
2018-03-19T01:12:03.736Z,48.40
2018-03-19T01:14:31.410Z,37.33
2018-03-19T01:16:58.846Z,9.65
2018-03-19T01:19:26.622Z,39.60
2018-03-19T01:21:54.402Z,30.70
2018-03-19T01:24:21.900Z,56.72
2018-03-19T01:26:49.545Z,82.55
2018-03-19T01:29:17.254Z,57.58
2018-03-19T01:31:44.731Z,77.80
2018-03-19T01:34:12.185Z,59.83
2018-03-19T01:36:40.226Z,79.53
2018-03-19T01:39:07.997Z,40.75
2018-03-19T01:41:35.423Z,85.20
2018-03-19T01:44:03.667Z,78.32
2018-03-19T01:46:31.290Z,96.20
2018-03-19T01:48:59.198Z,104.45
2018-03-19T01:51:26.638Z,9.18
2018-03-19T01:53:54.711Z,9.82
2018-03-19T01:56:22.468Z,72.00
2018-03-19T01:58:50.234Z,27.08
2018-03-19T02:01:17.682Z,27.60
2018-03-19T02:03:45.462Z,94.13
2018-03-19T02:06:13.118Z,48.00
2018-03-19T02:08:40.586Z,89.68
2018-03-19T02:11:08.038Z,54.75
2018-03-19T02:13:35.591Z,17.75
2018-03-19T02:16:03.355Z,11.43
2018-03-19T02:18:32.042Z,164.65
2018-03-19T02:20:59.974Z,94.87
2018-03-19T02:23:27.418Z,46.67
2018-03-19T02:25:55.856Z,49.28
2018-03-19T02:28:23.586Z,50.00
2018-03-19T02:30:51.039Z,108.00
2018-03-19T02:33:19.548Z,25.75
2018-03-19T02:35:47.250Z,43.85
2018-03-19T02:38:14.715Z,25.70
2018-03-19T02:40:42.174Z,21.65
2018-03-19T02:43:09.599Z,9.20
2018-03-19T02:45:37.086Z,108.15
2018-03-19T02:48:05.255Z,69.97
2018-03-19T02:50:32.702Z,118.25
2018-03-19T02:53:00.290Z,13.35
2018-03-19T02:55:27.757Z,82.18
2018-03-19T02:57:55.798Z,14.07
2018-03-19T03:00:24.259Z,76.72
2018-03-19T03:02:51.691Z,78.15
2018-03-19T03:05:19.466Z,26.65
2018-03-19T03:07:46.912Z,44.65
2018-03-19T03:10:14.360Z,8.98
2018-03-19T03:12:41.795Z,10.80
2018-03-19T03:15:09.423Z,115.50
2018-03-19T03:17:37.027Z,29.77
2018-03-19T03:20:04.580Z,10.93
2018-03-19T03:22:32.253Z,42.70
2018-03-19T03:24:59.700Z,108.28
2018-03-19T03:27:27.151Z,91.20
2018-03-19T03:29:54.612Z,86.97
2018-03-19T03:32:22.062Z,15.10
2018-03-19T03:34:49.526Z,85.65
2018-03-19T03:37:16.983Z,103.78
2018-03-19T03:39:44.461Z,8.35
2018-03-19T03:42:12.050Z,8.63
2018-03-19T03:44:39.683Z,17.27
2018-03-19T03:47:07.123Z,58.17
2018-03-19T03:49:34.588Z,86.05
2018-03-19T03:52:02.045Z,91.40
2018-03-19T03:54:29.502Z,23.33
2018-03-19T03:56:56.952Z,83.90
2018-03-19T03:59:24.395Z,11.23
2018-03-19T04:01:51.904Z,9.52
2018-03-19T04:04:19.350Z,9.48
2018-03-19T04:06:46.819Z,140.27
2018-03-19T04:09:14.279Z,59.80
2018-03-19T04:11:42.139Z,84.90
2018-03-19T04:14:09.812Z,75.78
2018-03-19T04:16:37.660Z,54.20
2018-03-19T04:19:05.103Z,88.82
2018-03-19T04:21:32.553Z,89.62
2018-03-19T04:24:00.318Z,31.12
2018-03-19T04:26:27.989Z,71.87
2018-03-19T04:28:55.564Z,79.93
2018-03-19T04:31:23.047Z,89.25
2018-03-19T04:33:51.383Z,52.10
2018-03-19T04:36:19.167Z,100.20
2018-03-19T04:38:46.617Z,65.62
2018-03-19T04:41:14.266Z,7.97
2018-03-19T04:43:41.724Z,40.20
2018-03-19T04:46:09.441Z,7.85
2018-03-19T04:48:37.984Z,13.23
2018-03-19T04:51:05.634Z,12.05
2018-03-19T04:53:33.079Z,9.82
2018-03-19T04:56:01.154Z,88.35
2018-03-19T04:58:28.580Z,15.77
2018-03-19T05:00:56.806Z,70.45
2018-03-19T05:03:25.191Z,85.35
2018-03-19T05:05:52.644Z,116.90
2018-03-19T05:08:20.082Z,61.95
2018-03-19T05:10:48.179Z,97.60
2018-03-19T05:13:15.651Z,7.45
2018-03-19T05:15:43.703Z,112.57
2018-03-19T05:18:11.339Z,59.35
2018-03-19T05:20:39.240Z,9.80
2018-03-19T05:23:07.111Z,14.10
2018-03-19T05:25:34.787Z,9.52
2018-03-19T05:28:02.523Z,134.43
2018-03-19T05:30:30.288Z,163.77
2018-03-19T05:32:57.726Z,8.68
2018-03-19T05:35:25.419Z,99.40
2018-03-19T05:37:53.804Z,10.32
2018-03-19T05:40:21.519Z,134.25
2018-03-19T05:42:49.402Z,105.82
2018-03-19T05:45:16.859Z,114.97
2018-03-19T05:47:44.420Z,110.93
2018-03-19T05:50:11.973Z,117.43
2018-03-19T05:52:39.430Z,86.20
2018-03-19T05:55:06.982Z,16.25
2018-03-19T05:57:34.427Z,93.03
2018-03-19T06:00:02.215Z,10.77
2018-03-19T06:02:29.663Z,91.28
2018-03-19T06:04:57.355Z,129.60
2018-03-19T06:07:24.822Z,114.47
2018-03-19T06:09:52.554Z,115.47
2018-03-19T06:12:20.784Z,14.87
2018-03-19T06:14:48.417Z,7.87
2018-03-19T06:17:15.874Z,56.90
2018-03-19T06:19:43.446Z,183.80
2018-03-19T06:22:11.092Z,167.23
2018-03-19T06:24:38.560Z,52.40
2018-03-19T06:27:06.402Z,69.68
2018-03-19T06:29:34.043Z,86.60
2018-03-19T06:32:01.809Z,107.47
2018-03-19T06:34:29.355Z,115.10
2018-03-19T06:36:57.451Z,9.95
2018-03-19T06:39:25.116Z,77.40
2018-03-19T06:41:52.726Z,21.52
2018-03-19T06:44:20.326Z,62.97
2018-03-19T06:46:48.219Z,17.23
2018-03-19T06:49:15.949Z,10.35
2018-03-19T06:51:43.742Z,59.33
2018-03-19T06:54:11.201Z,48.78
2018-03-19T06:56:39.111Z,73.43
2018-03-19T06:59:08.432Z,72.90
2018-03-19T07:01:35.870Z,126.95
2018-03-19T07:04:04.715Z,29.25
2018-03-19T07:06:32.439Z,62.47
2018-03-19T07:08:59.831Z,53.55
2018-03-19T07:11:27.581Z,65.80
2018-03-19T07:13:55.026Z,53.58
2018-03-19T07:16:22.500Z,56.33
2018-03-19T07:18:50.255Z,33.00
2018-03-19T07:21:18.141Z,108.10
2018-03-19T07:23:45.775Z,62.00
2018-03-19T07:26:13.363Z,28.67
2018-03-19T07:28:40.965Z,32.85
2018-03-19T07:31:08.417Z,42.92
2018-03-19T07:33:36.057Z,7.20
2018-03-19T07:36:03.802Z,32.25
2018-03-19T07:38:31.566Z,9.10
2018-03-19T07:40:59.297Z,30.05
2018-03-19T07:43:26.703Z,19.65
2018-03-19T07:45:54.154Z,37.95
2018-03-19T07:48:21.890Z,34.60
2018-03-19T07:50:49.404Z,60.85
2018-03-19T07:53:17.236Z,26.45
2018-03-19T07:55:44.691Z,26.50
2018-03-19T07:58:12.134Z,32.45
2018-03-19T08:00:39.626Z,40.92
2018-03-19T08:03:07.131Z,49.30
2018-03-19T08:05:34.552Z,39.17
2018-03-19T08:08:02.003Z,24.10
2018-03-19T08:10:29.739Z,51.37
2018-03-19T08:12:57.507Z,37.95
2018-03-19T08:15:24.967Z,449.50
2018-03-19T08:17:52.731Z,481.48
2018-03-19T08:20:20.181Z,619.10
2018-03-19T08:22:47.658Z,499.88
2018-03-19T08:25:15.225Z,518.35
2018-03-19T08:27:42.675Z,478.83
2018-03-19T08:30:10.627Z,512.28
2018-03-19T08:32:38.094Z,613.90
2018-03-19T08:35:05.731Z,612.62
2018-03-19T08:37:33.186Z,512.00
2018-03-19T08:40:01.063Z,487.73
2018-03-19T08:42:28.711Z,608.80
2018-03-19T08:44:56.292Z,624.80
2018-03-19T08:47:23.967Z,632.67
2018-03-19T08:49:51.566Z,653.60
2018-03-19T08:52:19.294Z,644.97
2018-03-19T08:54:47.040Z,644.20
2018-03-19T08:57:14.504Z,653.43
2018-03-19T08:59:42.275Z,654.67
2018-03-19T09:02:09.927Z,657.40
2018-03-19T09:04:37.379Z,667.63
2018-03-19T09:07:04.932Z,676.87
2018-03-19T09:09:32.435Z,681.07
2018-03-19T09:12:00.164Z,679.93
2018-03-19T09:14:27.931Z,673.40
2018-03-19T09:16:55.388Z,668.57
2018-03-19T09:19:23.021Z,673.17
2018-03-19T09:21:50.776Z,653.60
2018-03-19T09:24:18.368Z,666.77
2018-03-19T09:26:46.174Z,665.97
